• Join FlightAware (Why Join?)
  • Login
  • US Flag 
04:22AM EDT


 

Airport Tracker/Info


-or-


 

Live Flight TrackerFlight Track Log ✈ LXJ437 ✈ 16-Jun-2013 ✈ KDAL - KSKX

Flight Track Log - Related Links

Times and Time Zones

All times are in EDT time to prevent confusion due to time zone crossing. See the LXJ437 flight status page for this flight to view local times or setup timezone preferences in your user account.

Time Position Orientation Groundspeed Altitude Reporting Facility
EDT Latitude Longitude Course Direction KTS MPH feet Rate Location/Type
07:54AM 32.8333 -96.8333 121° Southeast 138 159 1,400  Level Dallas / Fort Worth TRACON
07:55AM 32.8167 -96.8000 121° Southeast 192 221 3,600 3,060 Climbing Dallas / Fort Worth TRACON
07:56AM 32.7500 -96.7833 168° South 207 238 7,600 3,480 Climbing Dallas / Fort Worth TRACON
07:57AM 32.7000 -96.8000 196° South 231 266 10,700 3,780 Climbing Dallas / Fort Worth TRACON
08:00AM 32.7261 -96.9986 279° West 293 337 20,000 3,660 Climbing Fort Worth Center
08:01AM 32.7578 -97.0922 292° West 303 349 23,000 2,880 Climbing Fort Worth Center
08:02AM 32.7894 -97.1936 290° West 315 362 25,800 2,400 Climbing Fort Worth Center
08:03AM 32.8269 -97.3047 292° West 338 389 27,900 2,040 Climbing Fort Worth Center
08:04AM 32.8689 -97.4183 294° West 364 419 29,900 2,040 Climbing Fort Worth Center
08:05AM 32.9106 -97.5322 294° West 378 435 32,000 2,040 Climbing Fort Worth Center
08:06AM 32.9500 -97.6511 292° West 378 435 34,000 1,980 Climbing Fort Worth Center
08:07AM 32.9872 -97.7700 290° West 378 435 36,000 1,980 Climbing Fort Worth Center
08:08AM 33.0225 -97.8842 290° West 378 435 38,000 1,740 Climbing Fort Worth Center
08:09AM 33.0594 -97.9933 292° West 373 429 39,500 1,200 Climbing Fort Worth Center
08:10AM 33.0944 -98.1078 290° West 373 429 40,500 720 Climbing Fort Worth Center
08:11AM 33.1333 -98.2247 292° West 373 429 41,000 540 Climbing Fort Worth Center
08:12AM 33.1722 -98.3442 291° West 379 436 41,600 540 Climbing Fort Worth Center
08:13AM 33.2006 -98.4436 289° West 389 448 42,100 600 Climbing Fort Worth Center
08:14AM 33.2456 -98.5733 293° West 389 448 42,900 420 Climbing Fort Worth Center
08:15AM 33.2839 -98.7006 290° West 395 455 43,000  Climbing Fort Worth Center
08:16AM 33.3203 -98.8206 290° West 395 455 43,000  Level Fort Worth Center
08:17AM 33.3583 -98.9406 291° West 395 455 43,000  Level Fort Worth Center
08:18AM 33.3967 -99.0581 291° West 385 443 43,000  Level Fort Worth Center
08:19AM 33.4325 -99.1783 290° West 385 443 43,000  Level Fort Worth Center
08:20AM 33.4683 -99.2961 290° West 385 443 43,000  Level Fort Worth Center
08:21AM 33.5039 -99.4214 289° West 393 452 43,000  Level Fort Worth Center
08:22AM 33.5436 -99.5419 292° West 393 452 43,000  Level Fort Worth Center
08:23AM 33.5792 -99.6650 289° West 393 452 43,000  Level Fort Worth Center
08:24AM 33.6167 -99.7831 291° West 393 452 43,000  Level Fort Worth Center
08:25AM 33.6519 -99.9039 289° West 393 452 43,000  Level Fort Worth Center
08:26AM 33.6869 -100.0244 289° West 388 447 43,000  Level Fort Worth Center
08:27AM 33.7242 -100.1406 291° West 388 447 43,000  Level Fort Worth Center
08:28AM 33.7567 -100.2664 287° West 388 447 43,000  Level Fort Worth Center
08:29AM 33.7958 -100.3828 292° West 388 447 43,000  Level Fort Worth Center
08:30AM 33.8453 -100.4969 298° West 382 440 43,000  Level Fort Worth Center
08:31AM 33.8947 -100.6089 298° West 382 440 43,000  Level Fort Worth Center
08:32AM 33.9372 -100.7331 292° West 389 448 43,000  Level Fort Worth Center
08:33AM 33.9886 -100.8428 299° West 389 448 43,000  Level Fort Worth Center
08:34AM 34.0375 -100.9600 297° West 389 448 43,000  Level Fort Worth Center
08:35AM 34.0922 -101.0875 297° West 389 448 43,000  Level Fort Worth Center
08:36AM 34.1369 -101.1947 297° West 389 448 43,000  Level Fort Worth Center
08:37AM 34.1894 -101.3225 296° West 389 448 43,000  Level Fort Worth Center
08:38AM 34.2319 -101.4325 295° West 389 448 43,000  Level Fort Worth Center
08:39AM 34.3211 -101.6525 296° West 396 456 43,000  Level Albuquerque Center
08:40AM 34.3711 -101.7744 296° West 400 460 43,000  Level Albuquerque Center
08:41AM 34.4200 -101.8986 296° West 405 466 43,000  Level Albuquerque Center
08:42AM 34.4694 -102.0242 296° West 409 471 43,000  Level Albuquerque Center
08:43AM 34.5186 -102.1472 296° West 406 467 43,000  Level Albuquerque Center
08:44AM 34.5678 -102.2711 296° West 407 468 43,000  Level Albuquerque Center
08:45AM 34.6169 -102.3958 296° West 408 470 43,000  Level Albuquerque Center
08:46AM 34.6667 -102.5206 296° West 409 471 43,000  Level Albuquerque Center
08:47AM 34.7161 -102.6453 296° West 409 471 43,000  Level Albuquerque Center
08:48AM 34.7653 -102.7731 295° West 409 471 43,000  Level Albuquerque Center
08:49AM 34.8156 -102.8986 296° West 409 471 43,000  Level Albuquerque Center
08:50AM 34.8644 -103.0258 295° West 410 472 43,000  Level Albuquerque Center
08:52AM 34.9142 -103.1522 296° West 410 472 43,000  Level Albuquerque Center
08:53AM 34.9614 -103.2775 295° West 405 466 43,000  Level Albuquerque Center
08:54AM 35.0119 -103.4047 296° West 410 472 43,000  Level Albuquerque Center
08:55AM 35.0597 -103.5294 295° West 405 466 43,000  Level Albuquerque Center
08:56AM 35.1078 -103.6556 295° West 406 467 43,000  Level Albuquerque Center
08:57AM 35.1558 -103.7808 295° West 405 466 43,000  Level Albuquerque Center
08:58AM 35.2033 -103.9064 295° West 405 466 43,000  Level Albuquerque Center
08:59AM 35.2558 -104.0458 295° West 407 468 43,000  Level Albuquerque Center
09:00AM 35.3022 -104.1700 295° West 403 464 43,000  Level Albuquerque Center
09:01AM 35.3500 -104.2989 294° West 403 464 43,000  Level Albuquerque Center
09:02AM 35.3953 -104.4217 294° West 394 453 43,000  Level Albuquerque Center
09:03AM 35.4403 -104.5439 294° West 392 451 43,000  Level Albuquerque Center
09:04AM 35.4858 -104.6667 295° West 392 451 43,000 -420 Level Albuquerque Center
09:05AM 35.5306 -104.7883 294° West 389 448 42,200 -1,980 Descending Albuquerque Center
09:06AM 35.5742 -104.9108 294° West 389 448 39,100 -3,300 Descending Albuquerque Center
09:07AM 35.6211 -105.0358 295° West 396 456 35,600 -3,420 Descending Albuquerque Center
09:08AM 35.6864 -105.1478 306° West 410 472 32,300 -3,480 Descending Albuquerque Center
09:09AM 35.7925 -105.2258 329° Northwest 438 504 28,700 -3,600 Descending Albuquerque Center
09:10AM 35.9047 -105.3000 332° Northwest 450 518 25,100 -3,720 Descending Albuquerque Center
09:11AM 36.0181 -105.3742 332° Northwest 455 524 21,200 -3,480 Descending Albuquerque Center
09:12AM 36.1169 -105.4422 331° Northwest 415 478 18,100 -2,880 Descending Albuquerque Center
09:13AM 36.2161 -105.5061 333° Northwest 400 460 15,400 -2,700 Descending Albuquerque Center